createdAt,value
2016-10-22T00:00:18.293Z,933.01
2016-10-22T00:01:31.829Z,933.02
2016-10-22T00:02:44.750Z,933.02
2016-10-22T00:03:57.859Z,933.05
2016-10-22T00:05:11.315Z,933.08
2016-10-22T00:06:23.845Z,933.08
2016-10-22T00:07:37.314Z,933.09
2016-10-22T00:08:50.908Z,933.13
2016-10-22T00:10:04.390Z,933.14
2016-10-22T00:11:16.790Z,933.15
2016-10-22T00:12:29.721Z,933.14
2016-10-22T00:13:43.244Z,933.15
2016-10-22T00:14:56.236Z,933.14
2016-10-22T00:16:09.791Z,933.15
2016-10-22T00:17:22.207Z,933.18
2016-10-22T00:18:35.120Z,933.19
2016-10-22T00:19:48.140Z,933.22
2016-10-22T00:21:01.610Z,933.26
2016-10-22T00:22:15.144Z,933.3
2016-10-22T00:23:28.618Z,933.33
2016-10-22T00:24:42.147Z,933.37
2016-10-22T00:25:54.507Z,933.42
2016-10-22T00:27:07.994Z,933.44
2016-10-22T00:28:20.912Z,933.46
2016-10-22T00:29:32.846Z,933.5
2016-10-22T00:30:45.843Z,933.5
2016-10-22T00:31:58.820Z,933.44
2016-10-22T00:33:12.259Z,933.47
2016-10-22T00:34:25.214Z,933.51
2016-10-22T00:35:38.230Z,933.52
2016-10-22T00:36:51.813Z,933.54
2016-10-22T00:38:04.754Z,933.57
2016-10-22T00:39:18.307Z,933.58
2016-10-22T00:40:31.807Z,933.63
2016-10-22T00:41:43.785Z,933.61
2016-10-22T00:42:56.692Z,933.59
2016-10-22T00:44:09.653Z,933.63
2016-10-22T00:45:23.176Z,933.64
2016-10-22T00:46:36.099Z,933.62
2016-10-22T00:47:49.709Z,933.63
2016-10-22T00:49:02.681Z,933.6
2016-10-22T00:50:16.209Z,933.62
2016-10-22T00:51:29.188Z,933.61
2016-10-22T00:52:42.799Z,933.6
2016-10-22T00:53:55.737Z,933.62
2016-10-22T00:55:09.263Z,933.63
2016-10-22T00:56:22.215Z,933.65
2016-10-22T00:57:35.183Z,933.64
2016-10-22T00:58:48.762Z,933.64
2016-10-22T01:00:01.663Z,933.61
2016-10-22T01:01:15.107Z,933.59
2016-10-22T01:02:28.107Z,933.6
2016-10-22T01:03:41.693Z,933.6
2016-10-22T01:04:54.636Z,933.6
2016-10-22T01:06:07.817Z,933.63
2016-10-22T01:07:20.804Z,933.64
2016-10-22T01:08:34.422Z,933.67
2016-10-22T01:09:47.481Z,933.69
2016-10-22T01:10:59.869Z,933.73
2016-10-22T01:12:12.867Z,933.71
2016-10-22T01:13:26.371Z,933.71
2016-10-22T01:14:39.531Z,933.72
2016-10-22T01:15:53.017Z,933.7
2016-10-22T01:17:06.019Z,933.7
2016-10-22T01:18:18.908Z,933.66
2016-10-22T01:19:31.281Z,933.64
2016-10-22T01:20:44.289Z,933.67
2016-10-22T01:21:57.704Z,933.71
2016-10-22T01:23:10.685Z,933.69
2016-10-22T01:24:23.679Z,933.69
2016-10-22T01:25:35.809Z,933.69
2016-10-22T01:26:49.285Z,933.69
2016-10-22T01:28:01.720Z,933.65
2016-10-22T01:29:15.239Z,933.64
2016-10-22T01:30:28.842Z,933.66
2016-10-22T01:31:41.912Z,933.66
2016-10-22T01:32:54.858Z,933.66
2016-10-22T01:34:07.861Z,933.63
2016-10-22T01:35:20.836Z,933.62
2016-10-22T01:36:32.374Z,933.62
2016-10-22T01:37:45.902Z,933.61
2016-10-22T01:38:59.380Z,933.63
2016-10-22T01:40:12.934Z,933.61
2016-10-22T01:41:25.369Z,933.62
2016-10-22T01:42:38.637Z,933.61
2016-10-22T01:43:51.657Z,933.6
2016-10-22T01:45:05.171Z,933.67
2016-10-22T01:46:18.737Z,933.61
2016-10-22T01:47:31.825Z,933.62
2016-10-22T01:48:44.264Z,933.56
2016-10-22T01:49:56.773Z,933.53
2016-10-22T01:51:09.731Z,933.51
2016-10-22T01:52:22.704Z,933.51
2016-10-22T01:53:35.666Z,933.46
2016-10-22T01:54:48.603Z,933.47
2016-10-22T01:56:02.100Z,933.46
2016-10-22T01:57:14.477Z,933.4
2016-10-22T01:58:27.500Z,933.4
2016-10-22T01:59:40.965Z,933.37
2016-10-22T02:00:54.021Z,933.32
2016-10-22T02:02:07.035Z,933.26
2016-10-22T02:03:20.441Z,933.28
2016-10-22T02:04:33.867Z,933.29
2016-10-22T02:05:46.773Z,933.3
2016-10-22T02:06:59.752Z,933.33
2016-10-22T02:08:12.688Z,933.34
2016-10-22T02:09:25.241Z,933.32
2016-10-22T02:10:37.650Z,933.27
2016-10-22T02:11:50.615Z,933.25
2016-10-22T02:13:03.544Z,933.19
2016-10-22T02:14:17.003Z,933.22
2016-10-22T02:15:30.589Z,933.21
2016-10-22T02:16:43.495Z,933.23
2016-10-22T02:17:56.948Z,933.23
2016-10-22T02:19:10.422Z,933.22
2016-10-22T02:20:23.012Z,933.26
2016-10-22T02:21:36.541Z,933.21
2016-10-22T02:22:48.967Z,933.23
2016-10-22T02:24:01.405Z,933.17
2016-10-22T02:25:14.906Z,933.13
2016-10-22T02:26:27.958Z,933.21
2016-10-22T02:27:41.411Z,933.24
2016-10-22T02:28:54.885Z,933.22
2016-10-22T02:30:07.876Z,933.22
2016-10-22T02:31:20.384Z,933.23
2016-10-22T02:32:32.776Z,933.25
2016-10-22T02:33:46.254Z,933.29
2016-10-22T02:34:59.208Z,933.31
2016-10-22T02:36:11.673Z,933.32
2016-10-22T02:37:24.135Z,933.39
2016-10-22T02:38:37.663Z,933.41
2016-10-22T02:39:50.652Z,933.45
2016-10-22T02:41:03.060Z,933.4
2016-10-22T02:42:15.641Z,933.39
2016-10-22T02:43:29.087Z,933.35
2016-10-22T02:44:42.119Z,933.37
2016-10-22T02:45:54.544Z,933.4
2016-10-22T02:47:08.028Z,933.36
2016-10-22T02:48:21.694Z,933.4
2016-10-22T02:49:34.687Z,933.38
2016-10-22T02:50:48.129Z,933.39
2016-10-22T02:52:01.124Z,933.37
2016-10-22T02:53:14.741Z,933.37
2016-10-22T02:54:27.744Z,933.37
2016-10-22T02:55:41.262Z,933.33
2016-10-22T02:56:54.219Z,933.31
2016-10-22T02:58:06.125Z,933.31
2016-10-22T02:59:19.110Z,933.31
2016-10-22T03:00:32.113Z,933.34
2016-10-22T03:01:44.538Z,933.31
2016-10-22T03:02:58.067Z,933.32
2016-10-22T03:04:11.649Z,933.29
2016-10-22T03:05:24.093Z,933.32
2016-10-22T03:06:37.026Z,933.31
2016-10-22T03:07:50.056Z,933.31
2016-10-22T03:09:03.550Z,933.33
2016-10-22T03:10:15.983Z,933.33
2016-10-22T03:11:28.932Z,933.33
2016-10-22T03:12:42.055Z,933.33
2016-10-22T03:13:55.479Z,933.32
2016-10-22T03:15:08.549Z,933.31
2016-10-22T03:16:20.975Z,933.29
2016-10-22T03:17:34.407Z,933.29
2016-10-22T03:18:48.113Z,933.27
2016-10-22T03:20:01.064Z,933.25
2016-10-22T03:21:14.580Z,933.25
2016-10-22T03:22:26.962Z,933.27
2016-10-22T03:23:40.130Z,933.21
2016-10-22T03:24:53.529Z,933.21
2016-10-22T03:26:07.055Z,933.23
2016-10-22T03:27:20.545Z,933.21
2016-10-22T03:28:32.938Z,933.2
2016-10-22T03:29:45.844Z,933.21
2016-10-22T03:30:57.742Z,933.22
2016-10-22T03:32:11.281Z,933.22
2016-10-22T03:33:24.726Z,933.23
2016-10-22T03:34:38.353Z,933.24
2016-10-22T03:35:51.786Z,933.26
2016-10-22T03:37:05.290Z,933.19
2016-10-22T03:38:18.187Z,933.26
2016-10-22T03:39:31.674Z,933.24
2016-10-22T03:40:44.498Z,933.19
2016-10-22T03:41:56.843Z,933.13
2016-10-22T03:43:09.877Z,933.09
2016-10-22T03:44:23.294Z,933.07
2016-10-22T03:45:36.894Z,933.01
2016-10-22T03:46:50.354Z,933.01
2016-10-22T03:48:03.879Z,932.96
2016-10-22T03:49:16.313Z,932.95
2016-10-22T03:50:29.672Z,932.95
2016-10-22T03:51:41.539Z,932.98
2016-10-22T03:52:54.569Z,932.95
2016-10-22T03:54:06.424Z,932.94
2016-10-22T03:55:18.796Z,932.88
2016-10-22T03:56:30.680Z,932.9
2016-10-22T03:57:43.561Z,932.92
2016-10-22T03:58:57.100Z,932.86
2016-10-22T04:00:09.738Z,932.92
2016-10-22T04:01:23.186Z,932.86
2016-10-22T04:02:36.111Z,932.82
2016-10-22T04:03:48.506Z,932.79
2016-10-22T04:05:00.891Z,932.78
2016-10-22T04:06:13.778Z,932.77
2016-10-22T04:07:26.646Z,932.78
2016-10-22T04:08:39.727Z,932.8
2016-10-22T04:09:53.267Z,932.81
2016-10-22T04:11:06.816Z,932.79
2016-10-22T04:12:19.694Z,932.77
2016-10-22T04:13:32.583Z,932.77
2016-10-22T04:14:45.963Z,932.75
2016-10-22T04:15:59.523Z,932.73
2016-10-22T04:17:13.021Z,932.71
2016-10-22T04:18:25.571Z,932.68
2016-10-22T04:19:38.507Z,932.63
2016-10-22T04:20:51.063Z,932.58
2016-10-22T04:22:04.005Z,932.55
2016-10-22T04:23:17.122Z,932.54
2016-10-22T04:24:30.044Z,932.56
2016-10-22T04:25:42.431Z,932.55
2016-10-22T04:26:56.060Z,932.51
2016-10-22T04:28:09.499Z,932.58
2016-10-22T04:29:22.595Z,932.53
2016-10-22T04:30:35.983Z,932.54
2016-10-22T04:31:49.574Z,932.52
2016-10-22T04:33:03.117Z,932.52
2016-10-22T04:34:16.064Z,932.51
2016-10-22T04:35:29.003Z,932.48
2016-10-22T04:36:41.381Z,932.47
2016-10-22T04:37:54.337Z,932.43
2016-10-22T04:39:07.279Z,932.43
2016-10-22T04:40:20.276Z,932.41
2016-10-22T04:41:32.282Z,932.43
2016-10-22T04:42:45.812Z,932.38
2016-10-22T04:43:58.228Z,932.36
2016-10-22T04:45:11.773Z,932.36
2016-10-22T04:46:24.176Z,932.32
2016-10-22T04:47:36.578Z,932.36
2016-10-22T04:48:48.484Z,932.32
2016-10-22T04:50:01.859Z,932.33
2016-10-22T04:51:15.319Z,932.31
2016-10-22T04:52:27.721Z,932.29
2016-10-22T04:53:40.860Z,932.28
2016-10-22T04:54:53.924Z,932.26
2016-10-22T04:56:07.506Z,932.23
2016-10-22T04:57:21.001Z,932.21
2016-10-22T04:58:33.936Z,932.26
2016-10-22T04:59:46.264Z,932.24
2016-10-22T05:00:59.182Z,932.24
2016-10-22T05:02:11.483Z,932.27
2016-10-22T05:03:23.883Z,932.29
2016-10-22T05:04:36.898Z,932.28
2016-10-22T05:05:50.334Z,932.31
2016-10-22T05:07:03.285Z,932.33
2016-10-22T05:08:16.783Z,932.28
2016-10-22T05:09:30.200Z,932.27
2016-10-22T05:10:42.616Z,932.26
2016-10-22T05:11:55.621Z,932.26
2016-10-22T05:13:09.259Z,932.25
2016-10-22T05:14:21.748Z,932.24
2016-10-22T05:15:34.472Z,932.28
2016-10-22T05:16:47.397Z,932.28
2016-10-22T05:18:00.872Z,932.28
2016-10-22T05:19:13.378Z,932.31
2016-10-22T05:20:26.293Z,932.35
2016-10-22T05:21:40.008Z,932.4
2016-10-22T05:22:52.907Z,932.42
2016-10-22T05:24:05.836Z,932.45
2016-10-22T05:25:19.393Z,932.45
2016-10-22T05:26:33.029Z,932.51
2016-10-22T05:27:45.510Z,932.45
2016-10-22T05:28:58.463Z,932.43
2016-10-22T05:30:11.916Z,932.42
2016-10-22T05:31:24.387Z,932.38
2016-10-22T05:32:37.818Z,932.35
2016-10-22T05:33:50.804Z,932.3
2016-10-22T05:35:03.653Z,932.32
2016-10-22T05:36:17.235Z,932.34
2016-10-22T05:37:30.165Z,932.34
2016-10-22T05:38:42.537Z,932.34
2016-10-22T05:39:55.411Z,932.37
2016-10-22T05:41:07.738Z,932.33
2016-10-22T05:42:21.170Z,932.3
2016-10-22T05:43:34.070Z,932.3
2016-10-22T05:44:47.562Z,932.34
2016-10-22T05:46:00.963Z,932.35
2016-10-22T05:47:14.392Z,932.37
2016-10-22T05:48:27.557Z,932.37
2016-10-22T05:49:41.024Z,932.39
2016-10-22T05:50:54.414Z,932.4
2016-10-22T05:52:07.816Z,932.4
2016-10-22T05:53:19.680Z,932.41
2016-10-22T05:54:33.269Z,932.4
2016-10-22T05:55:46.715Z,932.43
2016-10-22T05:56:59.145Z,932.43
2016-10-22T05:58:12.647Z,932.39
2016-10-22T05:59:25.716Z,932.4
2016-10-22T06:00:37.606Z,932.36
2016-10-22T06:01:50.289Z,932.34
2016-10-22T06:03:03.162Z,932.3
2016-10-22T06:04:16.705Z,932.36
2016-10-22T06:05:30.229Z,932.38
2016-10-22T06:06:43.863Z,932.44
2016-10-22T06:07:56.224Z,932.46
2016-10-22T06:09:09.629Z,932.48
2016-10-22T06:10:21.584Z,932.5
2016-10-22T06:11:33.545Z,932.49
2016-10-22T06:12:46.960Z,932.46
2016-10-22T06:13:59.445Z,932.42
2016-10-22T06:15:12.961Z,932.4
2016-10-22T06:16:26.459Z,932.37
2016-10-22T06:17:38.860Z,932.39
2016-10-22T06:18:52.269Z,932.32
2016-10-22T06:20:05.132Z,932.32
2016-10-22T06:21:18.713Z,932.34
2016-10-22T06:22:30.557Z,932.32
2016-10-22T06:23:43.431Z,932.28
2016-10-22T06:24:56.329Z,932.27
2016-10-22T06:26:09.670Z,932.24
2016-10-22T06:27:22.631Z,932.23
2016-10-22T06:28:36.086Z,932.25
2016-10-22T06:29:48.994Z,932.24
2016-10-22T06:31:02.389Z,932.22
2016-10-22T06:32:15.368Z,932.23
2016-10-22T06:33:28.828Z,932.25
2016-10-22T06:34:41.777Z,932.21
2016-10-22T06:35:55.249Z,932.19
2016-10-22T06:37:08.725Z,932.19
2016-10-22T06:38:22.126Z,932.21
2016-10-22T06:39:35.073Z,932.17
2016-10-22T06:40:47.947Z,932.22
2016-10-22T06:42:00.386Z,932.19
2016-10-22T06:43:13.357Z,932.18
2016-10-22T06:44:26.775Z,932.22
2016-10-22T06:45:39.635Z,932.26
2016-10-22T06:46:53.089Z,932.25
2016-10-22T06:48:05.416Z,932.27
2016-10-22T06:49:18.852Z,932.27
2016-10-22T06:50:31.274Z,932.2
2016-10-22T06:51:44.721Z,932.21
2016-10-22T06:52:58.290Z,932.2
2016-10-22T06:54:11.671Z,932.19
2016-10-22T06:55:24.681Z,932.24
2016-10-22T06:56:38.036Z,932.21
2016-10-22T06:57:51.541Z,932.29
2016-10-22T06:59:03.900Z,932.32
2016-10-22T07:00:16.782Z,932.34
2016-10-22T07:01:29.090Z,932.34
2016-10-22T07:02:41.559Z,932.39
2016-10-22T07:03:54.425Z,932.41
2016-10-22T07:05:06.886Z,932.43
2016-10-22T07:06:19.710Z,932.41
2016-10-22T07:07:32.702Z,932.42
2016-10-22T07:08:46.241Z,932.42
2016-10-22T07:09:58.134Z,932.42
2016-10-22T07:11:11.050Z,932.41
2016-10-22T07:12:23.425Z,932.39
2016-10-22T07:13:36.926Z,932.39
2016-10-22T07:14:50.294Z,932.43
2016-10-22T07:16:03.298Z,932.38
2016-10-22T07:17:16.229Z,932.38
2016-10-22T07:18:29.059Z,932.41
2016-10-22T07:19:42.430Z,932.37
2016-10-22T07:20:55.820Z,932.36
2016-10-22T07:22:09.393Z,932.39
2016-10-22T07:23:22.856Z,932.4
2016-10-22T07:24:35.804Z,932.41
2016-10-22T07:25:49.229Z,932.41
2016-10-22T07:27:01.772Z,932.45
2016-10-22T07:28:15.200Z,932.47
2016-10-22T07:29:27.610Z,932.46
2016-10-22T07:30:40.064Z,932.49
2016-10-22T07:31:52.604Z,932.5
2016-10-22T07:33:05.599Z,932.51
2016-10-22T07:34:18.017Z,932.52
2016-10-22T07:35:30.889Z,932.54
2016-10-22T07:36:43.209Z,932.53
2016-10-22T07:37:56.190Z,932.58
2016-10-22T07:39:08.604Z,932.56
2016-10-22T07:40:21.493Z,932.61
2016-10-22T07:41:33.870Z,932.58
2016-10-22T07:42:46.722Z,932.59
2016-10-22T07:44:00.157Z,932.62
2016-10-22T07:45:13.631Z,932.64
2016-10-22T07:46:26.555Z,932.62
2016-10-22T07:47:38.964Z,932.66
2016-10-22T07:48:51.542Z,932.69
2016-10-22T07:50:04.406Z,932.73
2016-10-22T07:51:17.415Z,932.7
2016-10-22T07:52:30.799Z,932.7
2016-10-22T07:53:43.749Z,932.69
2016-10-22T07:54:57.337Z,932.7
2016-10-22T07:56:10.866Z,932.7
2016-10-22T07:57:23.775Z,932.66
2016-10-22T07:58:36.748Z,932.69
2016-10-22T07:59:49.807Z,932.66
2016-10-22T08:01:02.331Z,932.67
2016-10-22T08:02:15.958Z,932.65
2016-10-22T08:03:28.911Z,932.69
2016-10-22T08:04:42.451Z,932.74
2016-10-22T08:05:55.790Z,932.74
2016-10-22T08:07:09.328Z,932.74
2016-10-22T08:08:22.326Z,932.78
2016-10-22T08:09:35.358Z,932.75
2016-10-22T08:10:48.509Z,932.8
2016-10-22T08:12:01.985Z,932.79
2016-10-22T08:13:14.951Z,932.82
2016-10-22T08:14:27.953Z,932.85
2016-10-22T08:15:41.174Z,932.85
2016-10-22T08:16:54.746Z,932.89
2016-10-22T08:18:07.682Z,932.88
2016-10-22T08:19:20.628Z,932.9
2016-10-22T08:20:33.614Z,932.93
2016-10-22T08:21:46.691Z,932.96
2016-10-22T08:22:59.599Z,932.96
2016-10-22T08:24:12.070Z,932.95
2016-10-22T08:25:24.559Z,932.99
2016-10-22T08:26:37.497Z,933
2016-10-22T08:27:50.918Z,933
2016-10-22T08:29:02.819Z,932.99
2016-10-22T08:30:16.360Z,932.98
2016-10-22T08:31:29.272Z,933.04
2016-10-22T08:32:42.847Z,933.07
2016-10-22T08:33:56.341Z,933.05
2016-10-22T08:35:09.918Z,933.05
2016-10-22T08:36:23.514Z,933.04
2016-10-22T08:37:36.575Z,933.05
2016-10-22T08:38:50.005Z,933.06
2016-10-22T08:40:03.505Z,933.07
2016-10-22T08:41:16.494Z,933.09
2016-10-22T08:42:29.493Z,933.14
2016-10-22T08:43:42.636Z,933.15
2016-10-22T08:44:56.162Z,933.17
2016-10-22T08:46:08.616Z,933.21
2016-10-22T08:47:22.167Z,933.22
2016-10-22T08:48:34.645Z,933.24
2016-10-22T08:49:46.657Z,933.26
2016-10-22T08:50:59.563Z,933.3
2016-10-22T08:52:11.505Z,933.35
2016-10-22T08:53:24.968Z,933.41
2016-10-22T08:54:38.515Z,933.45
2016-10-22T08:55:51.507Z,933.45
2016-10-22T08:57:03.907Z,933.46
2016-10-22T08:58:16.913Z,933.46
2016-10-22T08:59:30.508Z,933.44
2016-10-22T09:00:44.080Z,933.46
2016-10-22T09:01:57.106Z,933.49
2016-10-22T09:03:10.580Z,933.49
2016-10-22T09:04:22.984Z,933.51
2016-10-22T09:05:36.103Z,933.5
2016-10-22T09:06:48.514Z,933.51
2016-10-22T09:08:01.994Z,933.53
2016-10-22T09:09:15.503Z,933.51
2016-10-22T09:10:29.130Z,933.53
2016-10-22T09:11:42.125Z,933.56
2016-10-22T09:12:55.569Z,933.57
2016-10-22T09:14:07.969Z,933.57
2016-10-22T09:15:21.030Z,933.63
2016-10-22T09:16:33.663Z,933.66
2016-10-22T09:17:47.135Z,933.72
2016-10-22T09:19:00.564Z,933.72
2016-10-22T09:20:13.505Z,933.74
2016-10-22T09:21:25.898Z,933.75
2016-10-22T09:22:38.861Z,933.74
2016-10-22T09:23:51.284Z,933.76
2016-10-22T09:25:03.721Z,933.73
2016-10-22T09:26:16.249Z,933.75
2016-10-22T09:27:28.492Z,933.73
2016-10-22T09:28:40.380Z,933.73
2016-10-22T09:29:53.492Z,933.71
2016-10-22T09:31:05.989Z,933.7
2016-10-22T09:32:19.479Z,933.67
2016-10-22T09:33:33.019Z,933.67
2016-10-22T09:34:46.009Z,933.69
2016-10-22T09:35:58.941Z,933.75
2016-10-22T09:37:11.955Z,933.72
2016-10-22T09:38:25.663Z,933.77
2016-10-22T09:39:38.679Z,933.77
2016-10-22T09:40:51.665Z,933.81
2016-10-22T09:42:05.251Z,933.81
2016-10-22T09:43:18.273Z,933.81
2016-10-22T09:44:31.454Z,933.83
2016-10-22T09:45:44.881Z,933.86
2016-10-22T09:46:57.334Z,933.89
2016-10-22T09:48:10.368Z,933.93
2016-10-22T09:49:23.577Z,933.91
2016-10-22T09:50:36.587Z,933.95
2016-10-22T09:51:49.614Z,933.95
2016-10-22T09:53:02.565Z,933.99
2016-10-22T09:54:15.025Z,933.99
2016-10-22T09:55:27.906Z,933.97
2016-10-22T09:56:40.883Z,933.99
2016-10-22T09:57:53.307Z,934.03
2016-10-22T09:59:06.231Z,934.05
2016-10-22T10:00:19.257Z,934.06
2016-10-22T10:01:32.658Z,934.07
2016-10-22T10:02:43.958Z,934.06
2016-10-22T10:03:56.418Z,934.05
2016-10-22T10:05:09.391Z,934.03
2016-10-22T10:06:21.841Z,934.09
2016-10-22T10:07:35.365Z,934.05
2016-10-22T10:08:48.317Z,934.08
2016-10-22T10:10:01.256Z,934.11
2016-10-22T10:11:14.902Z,934.14
2016-10-22T10:12:27.883Z,934.12
2016-10-22T10:13:40.840Z,934.11
2016-10-22T10:14:53.765Z,934.14
2016-10-22T10:16:06.709Z,934.18
2016-10-22T10:17:20.351Z,934.2
2016-10-22T10:18:33.832Z,934.27
2016-10-22T10:19:46.785Z,934.27
2016-10-22T10:20:59.149Z,934.3
2016-10-22T10:22:12.231Z,934.37
2016-10-22T10:23:25.198Z,934.37
2016-10-22T10:24:38.684Z,934.42
2016-10-22T10:25:52.229Z,934.43
2016-10-22T10:27:04.099Z,934.43
2016-10-22T10:28:16.142Z,934.47
2016-10-22T10:29:29.614Z,934.44
2016-10-22T10:30:43.186Z,934.49
2016-10-22T10:31:56.183Z,934.49
2016-10-22T10:33:09.228Z,934.51
2016-10-22T10:34:22.203Z,934.54
2016-10-22T10:35:35.168Z,934.58
2016-10-22T10:36:48.702Z,934.61
2016-10-22T10:38:01.668Z,934.6
2016-10-22T10:39:14.146Z,934.63
2016-10-22T10:40:27.147Z,934.68
2016-10-22T10:41:39.564Z,934.7
2016-10-22T10:42:52.042Z,934.77
2016-10-22T10:44:05.621Z,934.77
2016-10-22T10:45:18.022Z,934.75
2016-10-22T10:46:30.921Z,934.81
2016-10-22T10:47:43.374Z,934.8
2016-10-22T10:48:56.356Z,934.84
2016-10-22T10:50:09.824Z,934.87
2016-10-22T10:51:23.313Z,934.93
2016-10-22T10:52:36.299Z,934.9
2016-10-22T10:53:49.203Z,934.95
2016-10-22T10:55:02.690Z,934.95
2016-10-22T10:56:15.653Z,934.96
2016-10-22T10:57:29.141Z,935
2016-10-22T10:58:42.633Z,935.02
2016-10-22T10:59:56.138Z,935.02
2016-10-22T11:01:09.576Z,935.08
2016-10-22T11:02:21.994Z,935.1
2016-10-22T11:03:35.529Z,935.08
2016-10-22T11:04:49.027Z,935.08
2016-10-22T11:06:01.566Z,935.07
2016-10-22T11:07:15.045Z,935.11
2016-10-22T11:08:28.005Z,935.13
2016-10-22T11:09:41.480Z,935.19
2016-10-22T11:10:54.431Z,935.16
2016-10-22T11:12:07.489Z,935.16
2016-10-22T11:13:19.862Z,935.22
2016-10-22T11:14:31.717Z,935.24
2016-10-22T11:15:44.669Z,935.25
2016-10-22T11:16:57.728Z,935.28
2016-10-22T11:18:10.718Z,935.24
2016-10-22T11:19:23.663Z,935.3
2016-10-22T11:20:36.625Z,935.26
2016-10-22T11:21:50.145Z,935.24
2016-10-22T11:23:03.289Z,935.22
2016-10-22T11:24:16.789Z,935.23
2016-10-22T11:25:29.303Z,935.2
2016-10-22T11:26:42.822Z,935.19
2016-10-22T11:27:56.505Z,935.18
2016-10-22T11:29:09.432Z,935.2
2016-10-22T11:30:23.125Z,935.18
2016-10-22T11:31:36.085Z,935.23
2016-10-22T11:32:48.079Z,935.18
2016-10-22T11:34:01.490Z,935.19
2016-10-22T11:35:14.993Z,935.22
2016-10-22T11:36:28.013Z,935.23
2016-10-22T11:37:41.062Z,935.21
2016-10-22T11:38:53.065Z,935.2
2016-10-22T11:40:06.569Z,935.21
2016-10-22T11:41:19.557Z,935.2
2016-10-22T11:42:33.014Z,935.22
2016-10-22T11:43:46.576Z,935.22
2016-10-22T11:44:59.578Z,935.2
2016-10-22T11:46:11.500Z,935.3
2016-10-22T11:47:25.017Z,935.3
2016-10-22T11:48:36.938Z,935.35
2016-10-22T11:49:49.982Z,935.37
2016-10-22T11:51:02.702Z,935.3
2016-10-22T11:52:16.145Z,935.33
2016-10-22T11:53:28.526Z,935.24
2016-10-22T11:54:42.019Z,935.22
2016-10-22T11:55:55.665Z,935.22
2016-10-22T11:57:07.598Z,935.16
2016-10-22T11:58:20.598Z,935.14
2016-10-22T11:59:32.998Z,935.14
2016-10-22T12:00:46.076Z,935.12
2016-10-22T12:01:59.512Z,935.12
2016-10-22T12:03:11.931Z,935.14
2016-10-22T12:04:25.464Z,935.1
2016-10-22T12:05:38.528Z,935.09
2016-10-22T12:06:51.623Z,935.17
2016-10-22T12:08:04.147Z,935.15
2016-10-22T12:09:17.095Z,935.18
2016-10-22T12:10:30.581Z,935.19
2016-10-22T12:11:44.199Z,935.21
2016-10-22T12:12:56.123Z,935.19
2016-10-22T12:14:09.630Z,935.2
2016-10-22T12:15:22.861Z,935.2
2016-10-22T12:16:35.263Z,935.17
2016-10-22T12:17:48.221Z,935.14
2016-10-22T12:19:01.196Z,935.1
2016-10-22T12:20:14.677Z,935.09
2016-10-22T12:21:28.221Z,935.03
2016-10-22T12:22:40.792Z,935.03
2016-10-22T12:23:54.219Z,935.01
2016-10-22T12:25:07.770Z,935.05
2016-10-22T12:26:21.253Z,935.07
2016-10-22T12:27:34.333Z,935.06
2016-10-22T12:28:47.392Z,935.08
2016-10-22T12:30:00.310Z,935.11
2016-10-22T12:31:13.265Z,935.17
2016-10-22T12:32:26.799Z,935.24
2016-10-22T12:33:39.910Z,935.17
2016-10-22T12:34:52.873Z,935.21
2016-10-22T12:36:06.431Z,935.27
2016-10-22T12:37:19.391Z,935.27
2016-10-22T12:38:32.335Z,935.24
2016-10-22T12:39:45.626Z,935.23
2016-10-22T12:40:59.080Z,935.25
2016-10-22T12:42:12.024Z,935.22
2016-10-22T12:43:25.528Z,935.28
2016-10-22T12:44:39.132Z,935.26
2016-10-22T12:45:51.572Z,935.22
2016-10-22T12:47:04.652Z,935.22
2016-10-22T12:48:17.583Z,935.29
2016-10-22T12:49:30.233Z,935.28
2016-10-22T12:50:43.163Z,935.3
2016-10-22T12:51:56.189Z,935.31
2016-10-22T12:53:08.640Z,935.35
2016-10-22T12:54:22.106Z,935.33
2016-10-22T12:55:35.726Z,935.38
2016-10-22T12:56:48.825Z,935.37
2016-10-22T12:58:01.789Z,935.49
2016-10-22T12:59:13.669Z,935.48
2016-10-22T13:00:27.129Z,935.45
2016-10-22T13:01:40.659Z,935.48
2016-10-22T13:02:53.629Z,935.43
2016-10-22T13:04:07.165Z,935.43
2016-10-22T13:05:19.650Z,935.35
2016-10-22T13:06:31.168Z,935.34
2016-10-22T13:07:44.394Z,935.34
2016-10-22T13:08:56.888Z,935.36
2016-10-22T13:10:10.472Z,935.31
2016-10-22T13:11:23.950Z,935.3
2016-10-22T13:12:37.361Z,935.29
2016-10-22T13:13:50.308Z,935.27
2016-10-22T13:15:02.885Z,935.26
2016-10-22T13:16:15.803Z,935.28
2016-10-22T13:17:28.347Z,935.26
2016-10-22T13:18:41.855Z,935.26
2016-10-22T13:19:55.382Z,935.23
2016-10-22T13:21:08.454Z,935.27
2016-10-22T13:22:21.931Z,935.26
2016-10-22T13:23:34.944Z,935.23
2016-10-22T13:24:48.536Z,935.29
2016-10-22T13:26:01.658Z,935.23
2016-10-22T13:27:15.310Z,935.22
2016-10-22T13:28:29.162Z,935.18
2016-10-22T13:29:41.824Z,935.16
2016-10-22T13:30:55.392Z,935.12
2016-10-22T13:32:07.384Z,935.1
2016-10-22T13:33:20.794Z,935.11
2016-10-22T13:34:34.373Z,935.1
2016-10-22T13:35:47.975Z,935.11
2016-10-22T13:37:00.421Z,935.06
2016-10-22T13:38:12.894Z,935.02
2016-10-22T13:39:25.971Z,935.06
2016-10-22T13:40:39.502Z,935.12
2016-10-22T13:41:52.460Z,935.05
2016-10-22T13:43:05.469Z,935.09
2016-10-22T13:44:18.928Z,935.09
2016-10-22T13:45:32.604Z,935.07
2016-10-22T13:46:45.507Z,935.07
2016-10-22T13:47:58.513Z,935.03
2016-10-22T13:49:10.992Z,934.97
2016-10-22T13:50:24.294Z,934.98
2016-10-22T13:51:37.822Z,934.89
2016-10-22T13:52:50.827Z,934.99
2016-10-22T13:54:03.722Z,935.03
2016-10-22T13:55:16.243Z,935.07
2016-10-22T13:56:29.236Z,935.11
2016-10-22T13:57:42.683Z,935.1
2016-10-22T13:58:55.574Z,935.07
2016-10-22T14:00:08.030Z,935.05
2016-10-22T14:01:21.617Z,935.06
2016-10-22T14:02:34.627Z,935.06
2016-10-22T14:03:47.155Z,935.06
2016-10-22T14:05:00.134Z,935.09
2016-10-22T14:06:13.567Z,935.04
2016-10-22T14:07:26.007Z,935.1
2016-10-22T14:08:38.405Z,935.13
2016-10-22T14:09:51.376Z,935.05
2016-10-22T14:11:04.314Z,935.05
2016-10-22T14:12:16.843Z,935.15
2016-10-22T14:13:30.364Z,935.12
2016-10-22T14:14:43.377Z,935.1
2016-10-22T14:15:56.844Z,935.14
2016-10-22T14:17:10.337Z,935.11
2016-10-22T14:18:23.414Z,935.16
2016-10-22T14:19:35.827Z,935.27
2016-10-22T14:20:48.316Z,935.27
2016-10-22T14:22:01.296Z,935.25
2016-10-22T14:23:14.370Z,935.16
2016-10-22T14:24:27.407Z,935.11
2016-10-22T14:25:39.822Z,935.12
2016-10-22T14:26:53.322Z,935.1
2016-10-22T14:28:05.696Z,935.09
2016-10-22T14:29:18.651Z,935.07
2016-10-22T14:30:32.100Z,935.12
2016-10-22T14:31:45.130Z,935.12
2016-10-22T14:32:58.092Z,935.17
2016-10-22T14:34:10.667Z,935.1
2016-10-22T14:35:23.063Z,935.08
2016-10-22T14:36:36.576Z,935.07
2016-10-22T14:37:49.096Z,935.05
2016-10-22T14:39:02.054Z,935.05
2016-10-22T14:40:14.979Z,935.01
2016-10-22T14:41:27.923Z,935.07
2016-10-22T14:42:41.369Z,935.12
2016-10-22T14:43:54.886Z,935.14
2016-10-22T14:45:07.919Z,935.18
2016-10-22T14:46:21.420Z,935.26
2016-10-22T14:47:34.414Z,935.24
2016-10-22T14:48:47.388Z,935.23
2016-10-22T14:49:59.287Z,935.19
2016-10-22T14:51:12.362Z,935.11
2016-10-22T14:52:24.771Z,935.05
2016-10-22T14:53:37.228Z,935.03
2016-10-22T14:54:50.720Z,935.07
2016-10-22T14:56:04.293Z,935.06
2016-10-22T14:57:17.802Z,934.95
2016-10-22T14:58:31.316Z,934.96
2016-10-22T14:59:43.778Z,934.95
2016-10-22T15:00:56.252Z,934.95
2016-10-22T15:02:09.288Z,934.95
2016-10-22T15:03:21.179Z,934.92
2016-10-22T15:04:33.652Z,934.97
2016-10-22T15:05:47.087Z,934.98
2016-10-22T15:07:00.211Z,934.94
2016-10-22T15:08:13.761Z,934.93
2016-10-22T15:09:26.159Z,934.89
2016-10-22T15:10:37.534Z,934.87
2016-10-22T15:11:50.492Z,934.93
2016-10-22T15:13:03.425Z,934.97
2016-10-22T15:14:16.874Z,934.98